CSN6799 ZYTL-ZBTJ
Flight info
| Callsign | CSN6799 |
|---|---|
| Flight time | 0h 52m |
| Altitude | 23600 |
| Route | ORA19D ORAVA W576 OVTUP W55 DUMAP DUMAP1Q |
| Aircraft | A320/M-SDE3FGHIRWY/LB1 |
Departure
| Time | 2026-04-27 10:24 |
|---|---|
| Airport | Dalian Zhoushuizi International Airport (ZYTL) |
Arrival
| Time | 2026-04-27 11:16 |
|---|---|
| Airport | Tianjin Binhai International Airport (ZBTJ) |
| Time | Latitude | Longitude | Altitude | Speed | Heading |
|---|---|---|---|---|---|
| 2026-04-27 10:07 | 38.96241 | 121.54037 | 150 ft | 0 kts | 182° |
| 2026-04-27 10:16 | 38.96246 | 121.54038 | 150 ft | 4 kts | 177° |
| 2026-04-27 10:16 | 38.96266 | 121.54027 | 150 ft | 4 kts | 113° |
| 2026-04-27 10:17 | 38.96270 | 121.54002 | 150 ft | 0 kts | 81° |
| 2026-04-27 10:18 | 38.96270 | 121.54003 | 150 ft | 1 kts | 81° |
| 2026-04-27 10:19 | 38.96272 | 121.54017 | 150 ft | 3 kts | 78° |
| 2026-04-27 10:19 | 38.96280 | 121.54049 | 150 ft | 5 kts | 69° |
| 2026-04-27 10:19 | 38.96298 | 121.54097 | 150 ft | 7 kts | 69° |
| 2026-04-27 10:19 | 38.96298 | 121.54168 | 150 ft | 9 kts | 96° |
| 2026-04-27 10:20 | 38.96291 | 121.54258 | 150 ft | 11 kts | 96° |
| 2026-04-27 10:20 | 38.96283 | 121.54366 | 150 ft | 13 kts | 96° |
| 2026-04-27 10:20 | 38.96278 | 121.54494 | 150 ft | 15 kts | 86° |
| 2026-04-27 10:20 | 38.96271 | 121.54639 | 150 ft | 18 kts | 95° |
| 2026-04-27 10:21 | 38.96259 | 121.54807 | 150 ft | 20 kts | 95° |
| 2026-04-27 10:21 | 38.96257 | 121.54992 | 150 ft | 21 kts | 67° |
| 2026-04-27 10:21 | 38.96273 | 121.55153 | 150 ft | 17 kts | 98° |
| 2026-04-27 10:21 | 38.96259 | 121.55315 | 150 ft | 19 kts | 96° |
| 2026-04-27 10:22 | 38.96287 | 121.55453 | 150 ft | 16 kts | 15° |
| 2026-04-27 10:22 | 38.96398 | 121.55476 | 150 ft | 15 kts | 5° |
| 2026-04-27 10:22 | 38.96445 | 121.55461 | 150 ft | 4 kts | 292° |
| 2026-04-27 10:22 | 38.96446 | 121.55441 | 150 ft | 0 kts | 274° |
| 2026-04-27 10:23 | 38.96456 | 121.55294 | 150 ft | 49 kts | 275° |
| 2026-04-27 10:23 | 38.96511 | 121.54572 | 150 ft | 111 kts | 276° |
| 2026-04-27 10:23 | 38.96609 | 121.53378 | 152 ft | 157 kts | 278° |
| 2026-04-27 10:23 | 38.96766 | 121.51974 | 664 ft | 157 kts | 282° |
| 2026-04-27 10:24 | 38.96863 | 121.50593 | 1263 ft | 158 kts | 282° |
| 2026-04-27 10:24 | 38.96968 | 121.49109 | 1532 ft | 178 kts | 284° |
| 2026-04-27 10:24 | 38.97093 | 121.47427 | 1782 ft | 201 kts | 282° |
| 2026-04-27 10:24 | 38.97231 | 121.45548 | 2023 ft | 222 kts | 282° |
| 2026-04-27 10:25 | 38.97383 | 121.43486 | 2427 ft | 241 kts | 281° |
| 2026-04-27 10:25 | 38.97541 | 121.41302 | 3177 ft | 248 kts | 281° |
| 2026-04-27 10:25 | 38.97758 | 121.39115 | 4106 ft | 244 kts | 292° |
| 2026-04-27 10:25 | 38.98617 | 121.37346 | 5070 ft | 230 kts | 323° |
| 2026-04-27 10:26 | 39.00026 | 121.36505 | 5987 ft | 228 kts | 352° |
| 2026-04-27 10:26 | 39.01624 | 121.36580 | 6832 ft | 232 kts | 2° |
| 2026-04-27 10:26 | 39.03241 | 121.36792 | 7643 ft | 235 kts | 2° |
| 2026-04-27 10:26 | 39.04863 | 121.37228 | 8434 ft | 247 kts | 20° |
| 2026-04-27 10:27 | 39.06185 | 121.38732 | 9146 ft | 269 kts | 53° |
| 2026-04-27 10:27 | 39.06768 | 121.41157 | 9521 ft | 301 kts | 81° |
| 2026-04-27 10:27 | 39.06760 | 121.43875 | 10101 ft | 314 kts | 91° |
| 2026-04-27 10:27 | 39.06515 | 121.46696 | 10758 ft | 320 kts | 95° |
| 2026-04-27 10:28 | 39.06183 | 121.49554 | 11427 ft | 326 kts | 96° |
| 2026-04-27 10:28 | 39.05668 | 121.52421 | 12076 ft | 334 kts | 112° |
| 2026-04-27 10:28 | 39.04406 | 121.54934 | 12732 ft | 338 kts | 136° |
| 2026-04-27 10:28 | 39.02531 | 121.56718 | 13384 ft | 335 kts | 160° |
| 2026-04-27 10:29 | 39.00321 | 121.57493 | 14013 ft | 326 kts | 184° |
| 2026-04-27 10:29 | 38.98090 | 121.57299 | 14636 ft | 319 kts | 199° |
| 2026-04-27 10:29 | 38.95991 | 121.56508 | 15278 ft | 312 kts | 211° |
| 2026-04-27 10:29 | 38.94073 | 121.55201 | 15446 ft | 322 kts | 222° |
| 2026-04-27 10:30 | 38.92169 | 121.53532 | 15582 ft | 341 kts | 222° |
| 2026-04-27 10:30 | 38.90155 | 121.51772 | 15680 ft | 359 kts | 222° |
| 2026-04-27 10:30 | 38.88037 | 121.49937 | 15799 ft | 375 kts | 221° |
| 2026-04-27 10:30 | 38.85819 | 121.48039 | 15943 ft | 391 kts | 221° |
| 2026-04-27 10:31 | 38.83506 | 121.46080 | 16065 ft | 405 kts | 220° |
| 2026-04-27 10:31 | 38.81116 | 121.44073 | 16337 ft | 415 kts | 220° |
| 2026-04-27 10:31 | 38.78686 | 121.42043 | 16790 ft | 418 kts | 220° |
| 2026-04-27 10:31 | 38.76242 | 121.40004 | 17277 ft | 420 kts | 220° |
| 2026-04-27 10:32 | 38.73822 | 121.37979 | 17772 ft | 422 kts | 220° |
| 2026-04-27 10:32 | 38.71361 | 121.35912 | 18253 ft | 424 kts | 220° |
| 2026-04-27 10:32 | 38.68893 | 121.33833 | 18673 ft | 426 kts | 221° |
| 2026-04-27 10:32 | 38.66418 | 121.31742 | 19081 ft | 427 kts | 221° |
| 2026-04-27 10:33 | 38.63933 | 121.29638 | 19482 ft | 429 kts | 221° |
| 2026-04-27 10:33 | 38.61472 | 121.27477 | 19869 ft | 426 kts | 226° |
| 2026-04-27 10:33 | 38.59370 | 121.24883 | 20238 ft | 416 kts | 238° |
| 2026-04-27 10:33 | 38.57767 | 121.21869 | 20548 ft | 406 kts | 249° |
| 2026-04-27 10:34 | 38.56711 | 121.18613 | 20885 ft | 398 kts | 259° |
| 2026-04-27 10:34 | 38.56172 | 121.15181 | 21239 ft | 392 kts | 269° |
| 2026-04-27 10:34 | 38.56151 | 121.11725 | 21579 ft | 387 kts | 278° |
| 2026-04-27 10:34 | 38.56599 | 121.08351 | 21923 ft | 385 kts | 284° |
| 2026-04-27 10:35 | 38.57158 | 121.04999 | 22258 ft | 385 kts | 284° |
| 2026-04-27 10:35 | 38.57717 | 121.01649 | 22587 ft | 386 kts | 284° |
| 2026-04-27 10:35 | 38.58274 | 120.98296 | 22912 ft | 386 kts | 284° |
| 2026-04-27 10:35 | 38.58830 | 120.94937 | 23229 ft | 386 kts | 284° |
| 2026-04-27 10:36 | 38.59376 | 120.91622 | 23505 ft | 386 kts | 284° |
| 2026-04-27 10:36 | 38.59925 | 120.88269 | 23576 ft | 385 kts | 284° |
| 2026-04-27 10:36 | 38.60472 | 120.84920 | 23584 ft | 385 kts | 284° |
| 2026-04-27 10:36 | 38.61017 | 120.81575 | 23588 ft | 384 kts | 284° |
| 2026-04-27 10:37 | 38.61563 | 120.78230 | 23587 ft | 384 kts | 284° |
| 2026-04-27 10:37 | 38.62111 | 120.74886 | 23584 ft | 384 kts | 284° |
| 2026-04-27 10:37 | 38.62657 | 120.71544 | 23590 ft | 384 kts | 284° |
| 2026-04-27 10:37 | 38.63201 | 120.68197 | 23592 ft | 384 kts | 284° |
| 2026-04-27 10:38 | 38.63744 | 120.64849 | 23593 ft | 384 kts | 284° |
| 2026-04-27 10:38 | 38.64285 | 120.61503 | 23596 ft | 384 kts | 284° |
| 2026-04-27 10:38 | 38.64820 | 120.58200 | 23595 ft | 384 kts | 284° |
| 2026-04-27 10:38 | 38.65367 | 120.54855 | 23594 ft | 384 kts | 284° |
| 2026-04-27 10:39 | 38.65922 | 120.51510 | 23594 ft | 384 kts | 284° |
| 2026-04-27 10:39 | 38.66479 | 120.48166 | 23599 ft | 384 kts | 284° |
| 2026-04-27 10:39 | 38.67032 | 120.44823 | 23598 ft | 384 kts | 284° |
| 2026-04-27 10:39 | 38.67583 | 120.41477 | 23598 ft | 384 kts | 284° |
| 2026-04-27 10:40 | 38.68132 | 120.38134 | 23593 ft | 384 kts | 284° |
| 2026-04-27 10:40 | 38.68682 | 120.34785 | 23595 ft | 384 kts | 284° |
| 2026-04-27 10:40 | 38.69223 | 120.31482 | 23594 ft | 384 kts | 284° |
| 2026-04-27 10:40 | 38.69689 | 120.28111 | 23595 ft | 387 kts | 278° |
| 2026-04-27 10:41 | 38.69570 | 120.24647 | 23598 ft | 395 kts | 266° |
| 2026-04-27 10:41 | 38.68736 | 120.21247 | 23577 ft | 408 kts | 253° |
| 2026-04-27 10:41 | 38.67175 | 120.18138 | 23575 ft | 426 kts | 239° |
| 2026-04-27 10:41 | 38.64902 | 120.15577 | 23585 ft | 447 kts | 225° |
| 2026-04-27 10:42 | 38.62272 | 120.13413 | 23589 ft | 450 kts | 223° |
| 2026-04-27 10:42 | 38.59626 | 120.11278 | 23585 ft | 450 kts | 223° |
| 2026-04-27 10:42 | 38.57007 | 120.09177 | 23586 ft | 451 kts | 223° |
| 2026-04-27 10:42 | 38.54352 | 120.07050 | 23590 ft | 451 kts | 223° |
| 2026-04-27 10:43 | 38.51698 | 120.04918 | 23583 ft | 450 kts | 223° |
| 2026-04-27 10:43 | 38.49049 | 120.02780 | 23597 ft | 451 kts | 223° |
| 2026-04-27 10:43 | 38.46406 | 120.00638 | 23606 ft | 450 kts | 223° |
| 2026-04-27 10:43 | 38.43844 | 119.98385 | 23607 ft | 442 kts | 229° |
| 2026-04-27 10:44 | 38.41602 | 119.95781 | 23605 ft | 431 kts | 236° |
| 2026-04-27 10:44 | 38.39595 | 119.92966 | 23613 ft | 429 kts | 237° |
| 2026-04-27 10:44 | 38.37593 | 119.90149 | 23610 ft | 429 kts | 237° |
| 2026-04-27 10:44 | 38.35586 | 119.87336 | 23581 ft | 429 kts | 237° |
| 2026-04-27 10:45 | 38.33603 | 119.84561 | 23585 ft | 430 kts | 237° |
| 2026-04-27 10:45 | 38.31588 | 119.81745 | 23589 ft | 430 kts | 237° |
| 2026-04-27 10:45 | 38.29573 | 119.78933 | 23597 ft | 430 kts | 237° |
| 2026-04-27 10:45 | 38.27557 | 119.76120 | 23598 ft | 430 kts | 237° |
| 2026-04-27 10:46 | 38.25542 | 119.73308 | 23600 ft | 430 kts | 237° |
| 2026-04-27 10:46 | 38.23524 | 119.70496 | 23605 ft | 430 kts | 237° |
| 2026-04-27 10:46 | 38.21504 | 119.67685 | 23592 ft | 431 kts | 237° |
| 2026-04-27 10:46 | 38.19478 | 119.64866 | 23604 ft | 432 kts | 237° |
| 2026-04-27 10:47 | 38.17477 | 119.62082 | 23608 ft | 432 kts | 237° |
| 2026-04-27 10:47 | 38.15678 | 119.59095 | 23606 ft | 420 kts | 246° |
| 2026-04-27 10:47 | 38.14417 | 119.55811 | 23616 ft | 409 kts | 257° |
| 2026-04-27 10:47 | 38.13710 | 119.52358 | 23611 ft | 400 kts | 266° |
| 2026-04-27 10:48 | 38.13538 | 119.48862 | 23617 ft | 395 kts | 275° |
| 2026-04-27 10:48 | 38.13885 | 119.45426 | 23621 ft | 392 kts | 284° |
| 2026-04-27 10:48 | 38.14726 | 119.42144 | 23615 ft | 391 kts | 292° |
| 2026-04-27 10:48 | 38.15770 | 119.38957 | 23621 ft | 391 kts | 292° |
| 2026-04-27 10:49 | 38.16799 | 119.35811 | 23563 ft | 390 kts | 292° |
| 2026-04-27 10:49 | 38.17839 | 119.32624 | 23277 ft | 391 kts | 292° |
| 2026-04-27 10:49 | 38.18875 | 119.29438 | 23003 ft | 390 kts | 292° |
| 2026-04-27 10:49 | 38.19908 | 119.26252 | 22732 ft | 389 kts | 292° |
| 2026-04-27 10:50 | 38.20938 | 119.23068 | 22459 ft | 389 kts | 292° |
| 2026-04-27 10:50 | 38.21966 | 119.19892 | 22193 ft | 388 kts | 292° |
| 2026-04-27 10:50 | 38.22994 | 119.16719 | 21929 ft | 388 kts | 292° |
| 2026-04-27 10:50 | 38.24004 | 119.13592 | 21671 ft | 387 kts | 292° |
| 2026-04-27 10:51 | 38.25025 | 119.10423 | 21411 ft | 387 kts | 292° |
| 2026-04-27 10:51 | 38.26043 | 119.07259 | 21158 ft | 386 kts | 292° |
| 2026-04-27 10:51 | 38.27059 | 119.04098 | 20900 ft | 386 kts | 292° |
| 2026-04-27 10:51 | 38.28072 | 119.00943 | 20650 ft | 385 kts | 293° |
| 2026-04-27 10:52 | 38.29085 | 118.97788 | 20399 ft | 385 kts | 293° |
| 2026-04-27 10:52 | 38.30096 | 118.94638 | 20145 ft | 384 kts | 293° |
| 2026-04-27 10:52 | 38.31104 | 118.91496 | 19899 ft | 384 kts | 293° |
| 2026-04-27 10:52 | 38.32098 | 118.88391 | 19661 ft | 383 kts | 293° |
| 2026-04-27 10:53 | 38.33103 | 118.85251 | 19418 ft | 383 kts | 293° |
| 2026-04-27 10:53 | 38.35103 | 118.78973 | 18940 ft | 382 kts | 293° |
| 2026-04-27 10:53 | 38.36100 | 118.75836 | 18704 ft | 382 kts | 293° |
| 2026-04-27 10:54 | 38.37096 | 118.72702 | 18470 ft | 382 kts | 293° |
| 2026-04-27 10:54 | 38.38095 | 118.69572 | 18224 ft | 381 kts | 294° |
| 2026-04-27 10:54 | 38.39082 | 118.66489 | 17957 ft | 381 kts | 294° |
| 2026-04-27 10:54 | 38.40082 | 118.63369 | 17695 ft | 380 kts | 293° |
| 2026-04-27 10:55 | 38.41078 | 118.60253 | 17429 ft | 379 kts | 293° |
| 2026-04-27 10:55 | 38.42070 | 118.57146 | 17165 ft | 378 kts | 293° |
| 2026-04-27 10:55 | 38.43059 | 118.54041 | 16905 ft | 377 kts | 293° |
| 2026-04-27 10:55 | 38.44040 | 118.50945 | 16645 ft | 376 kts | 293° |
| 2026-04-27 10:56 | 38.45017 | 118.47851 | 16385 ft | 376 kts | 293° |
| 2026-04-27 10:56 | 38.45978 | 118.44805 | 16119 ft | 375 kts | 293° |
| 2026-04-27 10:56 | 38.46952 | 118.41722 | 15887 ft | 374 kts | 293° |
| 2026-04-27 10:56 | 38.47926 | 118.38643 | 15636 ft | 374 kts | 293° |
| 2026-04-27 10:57 | 38.48900 | 118.35571 | 15392 ft | 373 kts | 293° |
| 2026-04-27 10:57 | 38.49870 | 118.32506 | 15146 ft | 372 kts | 292° |
| 2026-04-27 10:57 | 38.50836 | 118.29441 | 14899 ft | 372 kts | 292° |
| 2026-04-27 10:57 | 38.51798 | 118.26378 | 14656 ft | 371 kts | 292° |
| 2026-04-27 10:58 | 38.52760 | 118.23319 | 14415 ft | 371 kts | 292° |
| 2026-04-27 10:58 | 38.53707 | 118.20302 | 14179 ft | 371 kts | 292° |
| 2026-04-27 10:58 | 38.54665 | 118.17250 | 13942 ft | 370 kts | 292° |
| 2026-04-27 10:58 | 38.55620 | 118.14199 | 13685 ft | 370 kts | 292° |
| 2026-04-27 10:59 | 38.56573 | 118.11152 | 13416 ft | 369 kts | 292° |
| 2026-04-27 10:59 | 38.57522 | 118.08110 | 13150 ft | 368 kts | 292° |
| 2026-04-27 10:59 | 38.58471 | 118.05070 | 12858 ft | 369 kts | 292° |
| 2026-04-27 11:00 | 38.60444 | 117.99025 | 12337 ft | 368 kts | 295° |
| 2026-04-27 11:00 | 38.61490 | 117.96092 | 12083 ft | 367 kts | 295° |
| 2026-04-27 11:00 | 38.62563 | 117.93138 | 11825 ft | 366 kts | 296° |
| 2026-04-27 11:00 | 38.63636 | 117.90187 | 11575 ft | 365 kts | 296° |
| 2026-04-27 11:01 | 38.64702 | 117.87238 | 11324 ft | 365 kts | 296° |
| 2026-04-27 11:01 | 38.65759 | 117.84292 | 11076 ft | 364 kts | 295° |
| 2026-04-27 11:01 | 38.66802 | 117.81344 | 10829 ft | 364 kts | 295° |
| 2026-04-27 11:01 | 38.67837 | 117.78395 | 10587 ft | 363 kts | 295° |
| 2026-04-27 11:02 | 38.68869 | 117.75451 | 10343 ft | 362 kts | 295° |
| 2026-04-27 11:02 | 38.69884 | 117.72549 | 10105 ft | 362 kts | 295° |
| 2026-04-27 11:02 | 38.70893 | 117.69664 | 9929 ft | 345 kts | 296° |
| 2026-04-27 11:02 | 38.71846 | 117.66938 | 9794 ft | 326 kts | 296° |
| 2026-04-27 11:03 | 38.72751 | 117.64357 | 9660 ft | 310 kts | 296° |
| 2026-04-27 11:03 | 38.73615 | 117.61898 | 9524 ft | 296 kts | 296° |
| 2026-04-27 11:03 | 38.74440 | 117.59548 | 9391 ft | 284 kts | 296° |
| 2026-04-27 11:03 | 38.75232 | 117.57290 | 9265 ft | 272 kts | 296° |
| 2026-04-27 11:04 | 38.75993 | 117.55116 | 9130 ft | 263 kts | 296° |
| 2026-04-27 11:04 | 38.76721 | 117.53029 | 9000 ft | 259 kts | 296° |
| 2026-04-27 11:04 | 38.77457 | 117.50926 | 8868 ft | 258 kts | 297° |
| 2026-04-27 11:04 | 38.78193 | 117.48827 | 8737 ft | 258 kts | 297° |
| 2026-04-27 11:05 | 38.78927 | 117.46731 | 8598 ft | 258 kts | 297° |
| 2026-04-27 11:05 | 38.79783 | 117.44716 | 8467 ft | 257 kts | 306° |
| 2026-04-27 11:05 | 38.80877 | 117.42914 | 8337 ft | 255 kts | 314° |
| 2026-04-27 11:05 | 38.82172 | 117.41367 | 8210 ft | 254 kts | 322° |
| 2026-04-27 11:06 | 38.83635 | 117.40100 | 8082 ft | 254 kts | 331° |
| 2026-04-27 11:06 | 38.85204 | 117.39110 | 7955 ft | 255 kts | 335° |
| 2026-04-27 11:06 | 38.86809 | 117.38142 | 7828 ft | 255 kts | 335° |
| 2026-04-27 11:06 | 38.88411 | 117.37164 | 7699 ft | 255 kts | 334° |
| 2026-04-27 11:07 | 38.90005 | 117.36177 | 7573 ft | 254 kts | 334° |
| 2026-04-27 11:07 | 38.91595 | 117.35185 | 7447 ft | 254 kts | 334° |
| 2026-04-27 11:07 | 38.93183 | 117.34193 | 7319 ft | 254 kts | 334° |
| 2026-04-27 11:07 | 38.94771 | 117.33201 | 7194 ft | 254 kts | 334° |
| 2026-04-27 11:08 | 38.96356 | 117.32211 | 7068 ft | 253 kts | 334° |
| 2026-04-27 11:08 | 38.97917 | 117.31235 | 6948 ft | 253 kts | 335° |
| 2026-04-27 11:08 | 38.99499 | 117.30248 | 6823 ft | 252 kts | 334° |
| 2026-04-27 11:08 | 39.01076 | 117.29258 | 6699 ft | 253 kts | 334° |
| 2026-04-27 11:09 | 39.02651 | 117.28258 | 6573 ft | 252 kts | 334° |
| 2026-04-27 11:09 | 39.04223 | 117.27256 | 6446 ft | 252 kts | 334° |
| 2026-04-27 11:09 | 39.05791 | 117.26254 | 6326 ft | 251 kts | 334° |
| 2026-04-27 11:09 | 39.07357 | 117.25253 | 6191 ft | 251 kts | 334° |
| 2026-04-27 11:10 | 39.08928 | 117.24250 | 6058 ft | 253 kts | 335° |
| 2026-04-27 11:10 | 39.10484 | 117.23258 | 5943 ft | 253 kts | 335° |
| 2026-04-27 11:10 | 39.12062 | 117.22252 | 5800 ft | 253 kts | 335° |
| 2026-04-27 11:10 | 39.13640 | 117.21246 | 5676 ft | 253 kts | 335° |
| 2026-04-27 11:11 | 39.15231 | 117.20230 | 5231 ft | 258 kts | 335° |
| 2026-04-27 11:11 | 39.16814 | 117.19217 | 5123 ft | 248 kts | 335° |
| 2026-04-27 11:11 | 39.18317 | 117.18252 | 5068 ft | 235 kts | 335° |
| 2026-04-27 11:11 | 39.19748 | 117.17332 | 4992 ft | 224 kts | 335° |
| 2026-04-27 11:12 | 39.21119 | 117.16496 | 4897 ft | 212 kts | 344° |
| 2026-04-27 11:12 | 39.22512 | 117.16429 | 4806 ft | 204 kts | 16° |
| 2026-04-27 11:12 | 39.23709 | 117.17412 | 4509 ft | 211 kts | 50° |
| 2026-04-27 11:12 | 39.24423 | 117.19086 | 4148 ft | 214 kts | 60° |
| 2026-04-27 11:13 | 39.25076 | 117.20822 | 3806 ft | 216 kts | 61° |
| 2026-04-27 11:13 | 39.25550 | 117.22674 | 3450 ft | 222 kts | 79° |
| 2026-04-27 11:13 | 39.25447 | 117.24678 | 3156 ft | 226 kts | 103° |
| 2026-04-27 11:13 | 39.24756 | 117.26455 | 2866 ft | 222 kts | 125° |
| 2026-04-27 11:14 | 39.23594 | 117.27750 | 2425 ft | 223 kts | 149° |
| 2026-04-27 11:14 | 39.22212 | 117.28621 | 1920 ft | 223 kts | 152° |
| 2026-04-27 11:14 | 39.20845 | 117.29449 | 1573 ft | 210 kts | 150° |
| 2026-04-27 11:14 | 39.19590 | 117.30217 | 1319 ft | 190 kts | 150° |
| 2026-04-27 11:15 | 39.18466 | 117.30907 | 1080 ft | 166 kts | 148° |
| 2026-04-27 11:15 | 39.17481 | 117.31513 | 834 ft | 149 kts | 152° |
| 2026-04-27 11:15 | 39.16580 | 117.32072 | 646 ft | 140 kts | 153° |
| 2026-04-27 11:15 | 39.15727 | 117.32595 | 435 ft | 133 kts | 153° |
| 2026-04-27 11:16 | 39.14904 | 117.33103 | 238 ft | 133 kts | 154° |
| 2026-04-27 11:16 | 39.14077 | 117.33610 | 92 ft | 131 kts | 154° |
| 2026-04-27 11:16 | 39.13298 | 117.34103 | 18 ft | 101 kts | 155° |
| 2026-04-27 11:16 | 39.12899 | 117.34335 | 19 ft | 43 kts | 155° |
| 2026-04-27 11:17 | 39.12626 | 117.34496 | 19 ft | 43 kts | 154° |
| 2026-04-27 11:17 | 39.12388 | 117.34684 | 20 ft | 33 kts | 136° |
| 2026-04-27 11:17 | 39.12293 | 117.34850 | 19 ft | 23 kts | 121° |
| 2026-04-27 11:17 | 39.12209 | 117.35009 | 19 ft | 20 kts | 130° |
| 2026-04-27 11:18 | 39.12205 | 117.35142 | 19 ft | 15 kts | 62° |
| 2026-04-27 11:18 | 39.12256 | 117.35274 | 19 ft | 18 kts | 64° |
| 2026-04-27 11:18 | 39.12331 | 117.35374 | 20 ft | 14 kts | 357° |
| 2026-04-27 11:18 | 39.12431 | 117.35388 | 19 ft | 16 kts | 4° |
| 2026-04-27 11:19 | 39.12545 | 117.35398 | 19 ft | 12 kts | 3° |
| 2026-04-27 11:19 | 39.12584 | 117.35401 | 19 ft | 6 kts | 3° |
| 2026-04-27 11:19 | 39.12600 | 117.35364 | 19 ft | 5 kts | 274° |
| 2026-04-27 11:19 | 39.12601 | 117.35330 | 19 ft | 1 kts | 273° |
| 2026-04-27 11:20 | 39.12602 | 117.35323 | 19 ft | 0 kts | 272° |